sensor_id;sensor_type;location;lat;lon;timestamp;temperature;humidity
44990;DHT22;30723;51.206;3.326;2023-01-10T00:00:27;7.60;99.90
44990;DHT22;30723;51.206;3.326;2023-01-10T00:02:57;7.60;99.90
44990;DHT22;30723;51.206;3.326;2023-01-10T00:05:24;7.60;99.90
44990;DHT22;30723;51.206;3.326;2023-01-10T00:07:51;7.60;99.90
44990;DHT22;30723;51.206;3.326;2023-01-10T00:10:17;7.60;99.90
44990;DHT22;30723;51.206;3.326;2023-01-10T00:12:44;7.60;99.90
44990;DHT22;30723;51.206;3.326;2023-01-10T00:15:34;7.60;99.90
44990;DHT22;30723;51.206;3.326;2023-01-10T00:18:00;7.60;99.90
44990;DHT22;30723;51.206;3.326;2023-01-10T00:20:26;7.60;99.90
44990;DHT22;30723;51.206;3.326;2023-01-10T00:22:53;7.60;99.90
44990;DHT22;30723;51.206;3.326;2023-01-10T00:25:20;7.60;99.90
44990;DHT22;30723;51.206;3.326;2023-01-10T00:27:47;7.60;99.90
44990;DHT22;30723;51.206;3.326;2023-01-10T00:30:32;7.60;99.90
44990;DHT22;30723;51.206;3.326;2023-01-10T00:32:59;7.50;99.90
44990;DHT22;30723;51.206;3.326;2023-01-10T00:35:26;7.50;99.90
44990;DHT22;30723;51.206;3.326;2023-01-10T00:37:52;7.50;99.90
44990;DHT22;30723;51.206;3.326;2023-01-10T00:40:24;7.40;99.90
44990;DHT22;30723;51.206;3.326;2023-01-10T00:42:50;7.40;99.90
44990;DHT22;30723;51.206;3.326;2023-01-10T00:45:35;7.40;99.90
44990;DHT22;30723;51.206;3.326;2023-01-10T00:48:01;7.50;99.90
44990;DHT22;30723;51.206;3.326;2023-01-10T00:50:27;7.40;99.90
44990;DHT22;30723;51.206;3.326;2023-01-10T00:52:53;7.40;99.90
44990;DHT22;30723;51.206;3.326;2023-01-10T00:55:20;7.50;99.90
44990;DHT22;30723;51.206;3.326;2023-01-10T00:57:46;7.40;99.90
44990;DHT22;30723;51.206;3.326;2023-01-10T01:00:14;7.40;99.90
44990;DHT22;30723;51.206;3.326;2023-01-10T01:02:41;7.40;99.90
44990;DHT22;30723;51.206;3.326;2023-01-10T01:05:07;7.40;99.90
44990;DHT22;30723;51.206;3.326;2023-01-10T01:07:32;7.30;99.90
44990;DHT22;30723;51.206;3.326;2023-01-10T01:09:58;7.30;99.90
44990;DHT22;30723;51.206;3.326;2023-01-10T01:12:42;7.20;99.90
44990;DHT22;30723;51.206;3.326;2023-01-10T01:15:10;7.20;99.90
44990;DHT22;30723;51.206;3.326;2023-01-10T01:17:37;7.10;99.90
44990;DHT22;30723;51.206;3.326;2023-01-10T01:20:06;7.10;99.90
44990;DHT22;30723;51.206;3.326;2023-01-10T01:22:33;7.20;99.90
44990;DHT22;30723;51.206;3.326;2023-01-10T01:25:00;7.20;99.90
44990;DHT22;30723;51.206;3.326;2023-01-10T01:27:25;7.20;99.90
44990;DHT22;30723;51.206;3.326;2023-01-10T01:29:51;7.10;99.90
44990;DHT22;30723;51.206;3.326;2023-01-10T01:32:17;6.90;99.90
44990;DHT22;30723;51.206;3.326;2023-01-10T01:34:44;6.80;99.90
44990;DHT22;30723;51.206;3.326;2023-01-10T01:37:10;6.70;99.90
44990;DHT22;30723;51.206;3.326;2023-01-10T01:39:36;6.70;99.90
44990;DHT22;30723;51.206;3.326;2023-01-10T01:42:04;6.70;99.90
44990;DHT22;30723;51.206;3.326;2023-01-10T01:44:34;6.70;99.90
44990;DHT22;30723;51.206;3.326;2023-01-10T01:47:07;6.80;99.90
44990;DHT22;30723;51.206;3.326;2023-01-10T01:49:40;6.90;99.90
44990;DHT22;30723;51.206;3.326;2023-01-10T01:52:11;6.80;99.90
44990;DHT22;30723;51.206;3.326;2023-01-10T01:54:41;6.70;99.90
44990;DHT22;30723;51.206;3.326;2023-01-10T01:57:12;6.70;99.90
44990;DHT22;30723;51.206;3.326;2023-01-10T01:59:44;6.70;99.90
44990;DHT22;30723;51.206;3.326;2023-01-10T02:02:38;6.70;99.90
44990;DHT22;30723;51.206;3.326;2023-01-10T02:05:14;6.70;99.90
44990;DHT22;30723;51.206;3.326;2023-01-10T02:07:44;6.70;99.90
44990;DHT22;30723;51.206;3.326;2023-01-10T02:10:18;6.70;99.90
44990;DHT22;30723;51.206;3.326;2023-01-10T02:12:49;6.60;99.90
44990;DHT22;30723;51.206;3.326;2023-01-10T02:15:18;6.60;99.90
44990;DHT22;30723;51.206;3.326;2023-01-10T02:17:48;6.60;99.90
44990;DHT22;30723;51.206;3.326;2023-01-10T02:20:16;6.60;99.90
44990;DHT22;30723;51.206;3.326;2023-01-10T02:34:07;6.70;99.90
44990;DHT22;30723;51.206;3.326;2023-01-10T02:36:43;6.70;99.90
44990;DHT22;30723;51.206;3.326;2023-01-10T02:39:15;6.70;99.90
44990;DHT22;30723;51.206;3.326;2023-01-10T02:44:47;6.60;99.90
44990;DHT22;30723;51.206;3.326;2023-01-10T02:47:15;6.70;99.90
44990;DHT22;30723;51.206;3.326;2023-01-10T02:52:47;6.60;99.90
44990;DHT22;30723;51.206;3.326;2023-01-10T02:55:15;6.50;99.90
44990;DHT22;30723;51.206;3.326;2023-01-10T03:06:11;6.50;99.90
44990;DHT22;30723;51.206;3.326;2023-01-10T03:11:38;6.50;99.90
44990;DHT22;30723;51.206;3.326;2023-01-10T03:14:17;6.50;99.90
44990;DHT22;30723;51.206;3.326;2023-01-10T03:17:20;6.40;99.90
44990;DHT22;30723;51.206;3.326;2023-01-10T03:19:50;6.40;99.90
44990;DHT22;30723;51.206;3.326;2023-01-10T03:22:18;6.30;99.90
44990;DHT22;30723;51.206;3.326;2023-01-10T03:24:48;6.30;99.90
44990;DHT22;30723;51.206;3.326;2023-01-10T03:27:31;6.30;99.90
44990;DHT22;30723;51.206;3.326;2023-01-10T03:30:12;6.30;99.90
44990;DHT22;30723;51.206;3.326;2023-01-10T03:32:40;6.20;99.90
44990;DHT22;30723;51.206;3.326;2023-01-10T03:35:09;6.20;99.90
44990;DHT22;30723;51.206;3.326;2023-01-10T03:37:58;6.10;99.90
44990;DHT22;30723;51.206;3.326;2023-01-10T03:43:47;6.00;99.90
44990;DHT22;30723;51.206;3.326;2023-01-10T03:47:02;5.90;99.90
44990;DHT22;30723;51.206;3.326;2023-01-10T03:49:31;5.80;99.90
44990;DHT22;30723;51.206;3.326;2023-01-10T03:51:59;5.90;99.90
44990;DHT22;30723;51.206;3.326;2023-01-10T03:54:26;6.00;99.90
44990;DHT22;30723;51.206;3.326;2023-01-10T03:56:53;6.00;99.90
44990;DHT22;30723;51.206;3.326;2023-01-10T03:59:23;5.90;99.90
44990;DHT22;30723;51.206;3.326;2023-01-10T04:01:50;5.70;99.90
44990;DHT22;30723;51.206;3.326;2023-01-10T04:04:17;5.70;99.90
44990;DHT22;30723;51.206;3.326;2023-01-10T04:06:44;5.70;99.90
44990;DHT22;30723;51.206;3.326;2023-01-10T04:09:10;5.70;99.90
44990;DHT22;30723;51.206;3.326;2023-01-10T04:11:37;5.70;99.90
44990;DHT22;30723;51.206;3.326;2023-01-10T04:14:04;5.70;99.90
44990;DHT22;30723;51.206;3.326;2023-01-10T04:16:30;5.60;99.90
44990;DHT22;30723;51.206;3.326;2023-01-10T04:18:57;5.60;99.90
44990;DHT22;30723;51.206;3.326;2023-01-10T04:21:23;5.50;99.90
44990;DHT22;30723;51.206;3.326;2023-01-10T04:23:49;5.50;99.90
44990;DHT22;30723;51.206;3.326;2023-01-10T04:26:16;5.50;99.90
44990;DHT22;30723;51.206;3.326;2023-01-10T04:28:43;5.50;99.90
44990;DHT22;30723;51.206;3.326;2023-01-10T04:31:09;5.50;99.90
44990;DHT22;30723;51.206;3.326;2023-01-10T04:33:36;5.50;99.90
44990;DHT22;30723;51.206;3.326;2023-01-10T04:36:05;5.50;99.90
44990;DHT22;30723;51.206;3.326;2023-01-10T04:38:30;5.50;99.90
44990;DHT22;30723;51.206;3.326;2023-01-10T04:40:56;5.60;99.90
44990;DHT22;30723;51.206;3.326;2023-01-10T04:43:42;5.60;99.90
44990;DHT22;30723;51.206;3.326;2023-01-10T04:46:09;5.60;99.90
44990;DHT22;30723;51.206;3.326;2023-01-10T04:48:35;5.50;99.90
44990;DHT22;30723;51.206;3.326;2023-01-10T04:51:02;5.50;99.90
44990;DHT22;30723;51.206;3.326;2023-01-10T04:53:28;5.50;99.90
44990;DHT22;30723;51.206;3.326;2023-01-10T04:56:02;5.50;99.90
44990;DHT22;30723;51.206;3.326;2023-01-10T04:58:31;5.50;99.90
44990;DHT22;30723;51.206;3.326;2023-01-10T05:00:57;5.40;99.90
44990;DHT22;30723;51.206;3.326;2023-01-10T05:03:24;5.40;99.90
44990;DHT22;30723;51.206;3.326;2023-01-10T05:05:50;5.40;99.90
44990;DHT22;30723;51.206;3.326;2023-01-10T05:08:16;5.50;99.90
44990;DHT22;30723;51.206;3.326;2023-01-10T05:10:43;5.50;99.90
44990;DHT22;30723;51.206;3.326;2023-01-10T05:13:09;5.50;99.90
44990;DHT22;30723;51.206;3.326;2023-01-10T05:15:35;5.40;99.90
44990;DHT22;30723;51.206;3.326;2023-01-10T05:18:02;5.40;99.90
44990;DHT22;30723;51.206;3.326;2023-01-10T05:20:28;5.40;99.90
44990;DHT22;30723;51.206;3.326;2023-01-10T05:22:55;5.30;99.90
44990;DHT22;30723;51.206;3.326;2023-01-10T05:25:21;5.40;99.90
44990;DHT22;30723;51.206;3.326;2023-01-10T05:27:47;5.40;99.90
44990;DHT22;30723;51.206;3.326;2023-01-10T05:30:15;5.40;99.90
44990;DHT22;30723;51.206;3.326;2023-01-10T05:32:41;5.40;99.90
44990;DHT22;30723;51.206;3.326;2023-01-10T05:35:09;5.40;99.90
44990;DHT22;30723;51.206;3.326;2023-01-10T05:37:34;5.40;99.90
44990;DHT22;30723;51.206;3.326;2023-01-10T05:40:01;5.40;99.90
44990;DHT22;30723;51.206;3.326;2023-01-10T05:42:28;5.40;99.90
44990;DHT22;30723;51.206;3.326;2023-01-10T05:44:55;5.40;99.90
44990;DHT22;30723;51.206;3.326;2023-01-10T05:47:22;5.40;99.90
44990;DHT22;30723;51.206;3.326;2023-01-10T05:49:50;5.40;99.90
44990;DHT22;30723;51.206;3.326;2023-01-10T05:52:16;5.40;99.90
44990;DHT22;30723;51.206;3.326;2023-01-10T05:54:43;5.40;99.90
44990;DHT22;30723;51.206;3.326;2023-01-10T05:57:09;5.40;99.90
44990;DHT22;30723;51.206;3.326;2023-01-10T05:59:35;5.30;99.90
44990;DHT22;30723;51.206;3.326;2023-01-10T06:02:01;5.20;99.90
44990;DHT22;30723;51.206;3.326;2023-01-10T06:04:27;5.20;99.90
44990;DHT22;30723;51.206;3.326;2023-01-10T06:06:54;5.20;99.90
44990;DHT22;30723;51.206;3.326;2023-01-10T06:09:21;5.20;99.90
44990;DHT22;30723;51.206;3.326;2023-01-10T06:11:47;5.20;99.90
44990;DHT22;30723;51.206;3.326;2023-01-10T06:14:14;5.20;99.90
44990;DHT22;30723;51.206;3.326;2023-01-10T06:16:44;5.20;99.90
44990;DHT22;30723;51.206;3.326;2023-01-10T06:19:11;5.20;99.90
44990;DHT22;30723;51.206;3.326;2023-01-10T06:21:37;5.30;99.90
44990;DHT22;30723;51.206;3.326;2023-01-10T06:24:04;5.20;99.90
44990;DHT22;30723;51.206;3.326;2023-01-10T06:26:31;5.20;99.90
44990;DHT22;30723;51.206;3.326;2023-01-10T06:28:57;5.20;99.90
44990;DHT22;30723;51.206;3.326;2023-01-10T06:31:24;5.20;99.90
44990;DHT22;30723;51.206;3.326;2023-01-10T06:33:51;5.20;99.90
44990;DHT22;30723;51.206;3.326;2023-01-10T06:36:18;5.20;99.90
44990;DHT22;30723;51.206;3.326;2023-01-10T06:38:44;5.30;99.90
44990;DHT22;30723;51.206;3.326;2023-01-10T06:41:10;5.30;99.90
44990;DHT22;30723;51.206;3.326;2023-01-10T06:43:45;5.30;99.90
44990;DHT22;30723;51.206;3.326;2023-01-10T06:46:12;5.30;99.90
44990;DHT22;30723;51.206;3.326;2023-01-10T06:48:42;5.30;99.90
44990;DHT22;30723;51.206;3.326;2023-01-10T06:51:13;5.30;99.90
44990;DHT22;30723;51.206;3.326;2023-01-10T06:53:40;5.30;99.90
44990;DHT22;30723;51.206;3.326;2023-01-10T06:56:09;5.40;99.90
44990;DHT22;30723;51.206;3.326;2023-01-10T06:58:36;5.40;99.90
44990;DHT22;30723;51.206;3.326;2023-01-10T07:01:11;5.40;99.90
44990;DHT22;30723;51.206;3.326;2023-01-10T07:03:38;5.40;99.90
44990;DHT22;30723;51.206;3.326;2023-01-10T07:06:05;5.40;99.90
44990;DHT22;30723;51.206;3.326;2023-01-10T07:08:45;5.30;99.90
44990;DHT22;30723;51.206;3.326;2023-01-10T07:11:12;5.40;99.90
44990;DHT22;30723;51.206;3.326;2023-01-10T07:13:40;5.40;99.90
44990;DHT22;30723;51.206;3.326;2023-01-10T07:16:11;5.40;99.90
44990;DHT22;30723;51.206;3.326;2023-01-10T07:18:39;5.40;99.90
44990;DHT22;30723;51.206;3.326;2023-01-10T07:21:06;5.40;99.90
44990;DHT22;30723;51.206;3.326;2023-01-10T07:23:32;5.40;99.90
44990;DHT22;30723;51.206;3.326;2023-01-10T07:26:03;5.40;99.90
44990;DHT22;30723;51.206;3.326;2023-01-10T07:28:30;5.40;99.90
44990;DHT22;30723;51.206;3.326;2023-01-10T07:31:00;5.40;99.90
44990;DHT22;30723;51.206;3.326;2023-01-10T07:33:27;5.40;99.90
44990;DHT22;30723;51.206;3.326;2023-01-10T07:35:55;5.50;99.90
44990;DHT22;30723;51.206;3.326;2023-01-10T07:38:21;5.50;99.90
44990;DHT22;30723;51.206;3.326;2023-01-10T07:40:47;5.50;99.90
44990;DHT22;30723;51.206;3.326;2023-01-10T07:43:13;5.50;99.90
44990;DHT22;30723;51.206;3.326;2023-01-10T07:45:39;5.50;99.90
44990;DHT22;30723;51.206;3.326;2023-01-10T07:48:07;5.40;99.90
44990;DHT22;30723;51.206;3.326;2023-01-10T07:50:35;5.50;99.90
44990;DHT22;30723;51.206;3.326;2023-01-10T07:53:02;5.50;99.90
44990;DHT22;30723;51.206;3.326;2023-01-10T07:55:29;5.40;99.90
44990;DHT22;30723;51.206;3.326;2023-01-10T07:57:57;5.50;99.90
44990;DHT22;30723;51.206;3.326;2023-01-10T08:00:24;5.50;99.90
44990;DHT22;30723;51.206;3.326;2023-01-10T08:02:53;5.50;99.90
44990;DHT22;30723;51.206;3.326;2023-01-10T08:05:21;5.60;99.90
44990;DHT22;30723;51.206;3.326;2023-01-10T08:07:49;5.60;99.90
44990;DHT22;30723;51.206;3.326;2023-01-10T08:10:16;5.60;99.90
44990;DHT22;30723;51.206;3.326;2023-01-10T08:12:43;5.70;99.90
44990;DHT22;30723;51.206;3.326;2023-01-10T08:15:10;5.70;99.90
44990;DHT22;30723;51.206;3.326;2023-01-10T08:17:37;5.70;99.90
44990;DHT22;30723;51.206;3.326;2023-01-10T08:20:05;5.70;99.90
44990;DHT22;30723;51.206;3.326;2023-01-10T08:22:33;5.70;99.90
44990;DHT22;30723;51.206;3.326;2023-01-10T08:25:00;5.70;99.90
44990;DHT22;30723;51.206;3.326;2023-01-10T08:27:27;5.70;99.90
44990;DHT22;30723;51.206;3.326;2023-01-10T08:29:53;5.70;99.90
44990;DHT22;30723;51.206;3.326;2023-01-10T08:32:19;5.70;99.90
44990;DHT22;30723;51.206;3.326;2023-01-10T08:34:45;5.80;99.90
44990;DHT22;30723;51.206;3.326;2023-01-10T08:37:13;5.90;99.90
44990;DHT22;30723;51.206;3.326;2023-01-10T08:39:40;5.90;99.90
44990;DHT22;30723;51.206;3.326;2023-01-10T08:42:14;5.90;99.90
44990;DHT22;30723;51.206;3.326;2023-01-10T08:44:44;5.90;99.90
44990;DHT22;30723;51.206;3.326;2023-01-10T08:47:10;5.90;99.90
44990;DHT22;30723;51.206;3.326;2023-01-10T08:49:37;5.90;99.90
44990;DHT22;30723;51.206;3.326;2023-01-10T08:52:03;5.90;99.90
44990;DHT22;30723;51.206;3.326;2023-01-10T08:54:28;5.80;99.90
44990;DHT22;30723;51.206;3.326;2023-01-10T08:56:55;5.90;99.90
44990;DHT22;30723;51.206;3.326;2023-01-10T08:59:22;5.90;99.90
44990;DHT22;30723;51.206;3.326;2023-01-10T09:01:48;5.90;99.90
44990;DHT22;30723;51.206;3.326;2023-01-10T09:04:15;5.90;99.90
44990;DHT22;30723;51.206;3.326;2023-01-10T09:06:43;5.80;99.90
44990;DHT22;30723;51.206;3.326;2023-01-10T09:09:09;5.80;99.90
44990;DHT22;30723;51.206;3.326;2023-01-10T09:11:36;5.90;99.90
44990;DHT22;30723;51.206;3.326;2023-01-10T09:14:03;5.90;99.90
44990;DHT22;30723;51.206;3.326;2023-01-10T09:16:32;6.00;99.90
44990;DHT22;30723;51.206;3.326;2023-01-10T09:18:59;6.00;99.90
44990;DHT22;30723;51.206;3.326;2023-01-10T09:21:26;6.10;99.90
44990;DHT22;30723;51.206;3.326;2023-01-10T09:23:54;6.10;99.90
44990;DHT22;30723;51.206;3.326;2023-01-10T09:26:20;6.20;99.90
44990;DHT22;30723;51.206;3.326;2023-01-10T09:28:47;6.20;99.90
44990;DHT22;30723;51.206;3.326;2023-01-10T09:31:14;6.20;99.90
44990;DHT22;30723;51.206;3.326;2023-01-10T09:33:41;6.20;99.90
44990;DHT22;30723;51.206;3.326;2023-01-10T09:36:08;6.30;99.90
44990;DHT22;30723;51.206;3.326;2023-01-10T09:38:35;6.30;99.90
44990;DHT22;30723;51.206;3.326;2023-01-10T09:44:04;6.50;99.90
44990;DHT22;30723;51.206;3.326;2023-01-10T09:49:45;6.60;99.90
44990;DHT22;30723;51.206;3.326;2023-01-10T09:52:22;6.70;99.90
44990;DHT22;30723;51.206;3.326;2023-01-10T09:54:52;6.70;99.90
44990;DHT22;30723;51.206;3.326;2023-01-10T09:57:21;6.70;99.90
44990;DHT22;30723;51.206;3.326;2023-01-10T09:59:48;6.80;99.90
44990;DHT22;30723;51.206;3.326;2023-01-10T10:02:33;6.80;99.90
44990;DHT22;30723;51.206;3.326;2023-01-10T10:05:17;6.80;99.90
44990;DHT22;30723;51.206;3.326;2023-01-10T10:08:00;6.90;99.90
44990;DHT22;30723;51.206;3.326;2023-01-10T10:11:19;6.90;99.90
44990;DHT22;30723;51.206;3.326;2023-01-10T10:16:43;7.10;99.90
44990;DHT22;30723;51.206;3.326;2023-01-10T10:21:57;7.20;99.90
44990;DHT22;30723;51.206;3.326;2023-01-10T10:33:26;7.30;99.90
44990;DHT22;30723;51.206;3.326;2023-01-10T10:36:11;7.30;99.90
44990;DHT22;30723;51.206;3.326;2023-01-10T10:38:43;7.40;99.90
44990;DHT22;30723;51.206;3.326;2023-01-10T10:41:16;7.50;99.90
44990;DHT22;30723;51.206;3.326;2023-01-10T10:43:45;7.40;99.90
44990;DHT22;30723;51.206;3.326;2023-01-10T10:46:15;7.40;99.90
44990;DHT22;30723;51.206;3.326;2023-01-10T10:48:52;7.40;99.90
44990;DHT22;30723;51.206;3.326;2023-01-10T10:54:03;7.20;99.90
44990;DHT22;30723;51.206;3.326;2023-01-10T10:56:32;7.30;99.90
44990;DHT22;30723;51.206;3.326;2023-01-10T10:58:59;7.30;99.90
44990;DHT22;30723;51.206;3.326;2023-01-10T11:01:26;7.40;99.90
44990;DHT22;30723;51.206;3.326;2023-01-10T11:04:01;7.30;99.90
44990;DHT22;30723;51.206;3.326;2023-01-10T11:06:31;7.30;99.90
44990;DHT22;30723;51.206;3.326;2023-01-10T11:09:02;7.30;99.90
44990;DHT22;30723;51.206;3.326;2023-01-10T11:11:33;7.30;99.90
44990;DHT22;30723;51.206;3.326;2023-01-10T11:14:06;7.30;99.90
44990;DHT22;30723;51.206;3.326;2023-01-10T11:16:38;7.30;99.90
44990;DHT22;30723;51.206;3.326;2023-01-10T11:19:13;7.10;99.90
44990;DHT22;30723;51.206;3.326;2023-01-10T11:21:41;7.10;99.90
44990;DHT22;30723;51.206;3.326;2023-01-10T11:24:24;7.00;99.90
44990;DHT22;30723;51.206;3.326;2023-01-10T11:26:51;7.00;99.90
44990;DHT22;30723;51.206;3.326;2023-01-10T11:29:38;6.90;99.90
44990;DHT22;30723;51.206;3.326;2023-01-10T11:32:16;7.00;99.90
44990;DHT22;30723;51.206;3.326;2023-01-10T11:35:15;6.90;99.90
44990;DHT22;30723;51.206;3.326;2023-01-10T11:37:42;6.90;99.90
44990;DHT22;30723;51.206;3.326;2023-01-10T11:40:23;7.00;99.90
44990;DHT22;30723;51.206;3.326;2023-01-10T11:42:52;7.00;99.90
44990;DHT22;30723;51.206;3.326;2023-01-10T11:45:32;7.00;99.90
44990;DHT22;30723;51.206;3.326;2023-01-10T11:48:05;7.00;99.90
44990;DHT22;30723;51.206;3.326;2023-01-10T11:50:53;7.00;99.90
44990;DHT22;30723;51.206;3.326;2023-01-10T11:53:40;7.10;99.90
44990;DHT22;30723;51.206;3.326;2023-01-10T11:56:12;7.10;99.90
44990;DHT22;30723;51.206;3.326;2023-01-10T11:58:40;7.10;99.90
44990;DHT22;30723;51.206;3.326;2023-01-10T12:01:26;7.10;99.90
44990;DHT22;30723;51.206;3.326;2023-01-10T12:03:52;7.10;99.90
44990;DHT22;30723;51.206;3.326;2023-01-10T12:06:18;7.10;99.90
44990;DHT22;30723;51.206;3.326;2023-01-10T12:08:45;7.10;99.90
44990;DHT22;30723;51.206;3.326;2023-01-10T12:13:49;7.10;99.90
44990;DHT22;30723;51.206;3.326;2023-01-10T12:19:02;7.10;99.90
44990;DHT22;30723;51.206;3.326;2023-01-10T12:21:37;7.10;99.90
44990;DHT22;30723;51.206;3.326;2023-01-10T12:26:35;7.10;99.90
44990;DHT22;30723;51.206;3.326;2023-01-10T12:29:07;7.00;99.90
44990;DHT22;30723;51.206;3.326;2023-01-10T12:31:38;7.10;99.90
44990;DHT22;30723;51.206;3.326;2023-01-10T12:34:44;7.10;99.90
44990;DHT22;30723;51.206;3.326;2023-01-10T12:37:29;7.10;99.90
44990;DHT22;30723;51.206;3.326;2023-01-10T12:40:23;7.10;99.90
44990;DHT22;30723;51.206;3.326;2023-01-10T12:42:51;7.00;99.90
44990;DHT22;30723;51.206;3.326;2023-01-10T12:45:47;7.00;99.90
44990;DHT22;30723;51.206;3.326;2023-01-10T12:51:16;7.00;99.90
44990;DHT22;30723;51.206;3.326;2023-01-10T12:53:56;7.00;99.90
44990;DHT22;30723;51.206;3.326;2023-01-10T12:56:23;7.00;99.90
44990;DHT22;30723;51.206;3.326;2023-01-10T12:59:22;7.00;99.90
44990;DHT22;30723;51.206;3.326;2023-01-10T13:01:55;7.00;99.90
44990;DHT22;30723;51.206;3.326;2023-01-10T13:04:26;7.00;99.90
44990;DHT22;30723;51.206;3.326;2023-01-10T13:06:54;7.00;99.90
44990;DHT22;30723;51.206;3.326;2023-01-10T13:09:23;7.10;99.90
44990;DHT22;30723;51.206;3.326;2023-01-10T13:14:45;7.10;99.90
44990;DHT22;30723;51.206;3.326;2023-01-10T13:22:47;7.00;99.90
44990;DHT22;30723;51.206;3.326;2023-01-10T13:28:24;7.00;99.90
44990;DHT22;30723;51.206;3.326;2023-01-10T13:30:59;7.00;99.90
44990;DHT22;30723;51.206;3.326;2023-01-10T13:36:23;7.00;99.90
44990;DHT22;30723;51.206;3.326;2023-01-10T13:38:55;7.00;99.90
44990;DHT22;30723;51.206;3.326;2023-01-10T13:41:23;7.00;99.90
44990;DHT22;30723;51.206;3.326;2023-01-10T13:44:13;7.00;99.90
44990;DHT22;30723;51.206;3.326;2023-01-10T13:46:45;7.10;99.90
44990;DHT22;30723;51.206;3.326;2023-01-10T13:51:38;7.00;99.90
44990;DHT22;30723;51.206;3.326;2023-01-10T13:54:26;7.00;99.90
44990;DHT22;30723;51.206;3.326;2023-01-10T13:56:52;7.10;99.90
44990;DHT22;30723;51.206;3.326;2023-01-10T14:00:00;7.10;99.90
44990;DHT22;30723;51.206;3.326;2023-01-10T14:02:44;7.10;99.90
44990;DHT22;30723;51.206;3.326;2023-01-10T14:05:16;7.10;99.90
44990;DHT22;30723;51.206;3.326;2023-01-10T14:07:50;7.10;99.90
44990;DHT22;30723;51.206;3.326;2023-01-10T14:10:30;7.10;99.90
44990;DHT22;30723;51.206;3.326;2023-01-10T14:13:04;7.10;99.90
44990;DHT22;30723;51.206;3.326;2023-01-10T14:15:59;7.10;99.90
44990;DHT22;30723;51.206;3.326;2023-01-10T14:18:37;7.10;99.90
44990;DHT22;30723;51.206;3.326;2023-01-10T14:21:27;7.10;99.90
44990;DHT22;30723;51.206;3.326;2023-01-10T14:23:55;7.10;99.90
44990;DHT22;30723;51.206;3.326;2023-01-10T14:26:34;7.10;99.90
44990;DHT22;30723;51.206;3.326;2023-01-10T14:29:06;7.10;99.90
44990;DHT22;30723;51.206;3.326;2023-01-10T14:31:34;7.10;99.90
44990;DHT22;30723;51.206;3.326;2023-01-10T14:34:03;7.20;99.90
44990;DHT22;30723;51.206;3.326;2023-01-10T14:36:41;7.20;99.90
44990;DHT22;30723;51.206;3.326;2023-01-10T14:39:12;7.30;99.90
44990;DHT22;30723;51.206;3.326;2023-01-10T14:41:42;7.20;99.90
44990;DHT22;30723;51.206;3.326;2023-01-10T14:44:39;7.20;99.90
44990;DHT22;30723;51.206;3.326;2023-01-10T14:47:30;7.20;99.90
44990;DHT22;30723;51.206;3.326;2023-01-10T14:49:58;7.30;99.90
44990;DHT22;30723;51.206;3.326;2023-01-10T14:52:26;7.30;99.90
44990;DHT22;30723;51.206;3.326;2023-01-10T14:55:13;7.30;99.90
44990;DHT22;30723;51.206;3.326;2023-01-10T14:58:04;7.40;99.90
44990;DHT22;30723;51.206;3.326;2023-01-10T15:00:34;7.40;99.90
44990;DHT22;30723;51.206;3.326;2023-01-10T15:03:05;7.40;99.90
44990;DHT22;30723;51.206;3.326;2023-01-10T15:05:43;7.40;99.90
44990;DHT22;30723;51.206;3.326;2023-01-10T15:08:26;7.50;99.90
44990;DHT22;30723;51.206;3.326;2023-01-10T15:11:02;7.50;99.90
44990;DHT22;30723;51.206;3.326;2023-01-10T15:13:30;7.50;99.90
44990;DHT22;30723;51.206;3.326;2023-01-10T15:15:58;7.50;99.90
44990;DHT22;30723;51.206;3.326;2023-01-10T15:18:38;7.60;99.90
44990;DHT22;30723;51.206;3.326;2023-01-10T15:21:05;7.60;99.90
44990;DHT22;30723;51.206;3.326;2023-01-10T15:23:35;7.60;99.90
44990;DHT22;30723;51.206;3.326;2023-01-10T15:26:05;7.60;99.90
44990;DHT22;30723;51.206;3.326;2023-01-10T15:28:32;7.70;99.90
44990;DHT22;30723;51.206;3.326;2023-01-10T15:31:01;7.70;99.90
44990;DHT22;30723;51.206;3.326;2023-01-10T15:33:29;7.70;99.90
44990;DHT22;30723;51.206;3.326;2023-01-10T15:36:12;7.70;99.90
44990;DHT22;30723;51.206;3.326;2023-01-10T15:38:43;7.80;99.90
44990;DHT22;30723;51.206;3.326;2023-01-10T15:41:09;7.90;99.90
44990;DHT22;30723;51.206;3.326;2023-01-10T15:43:40;7.90;99.90
44990;DHT22;30723;51.206;3.326;2023-01-10T15:46:19;8.00;99.90
44990;DHT22;30723;51.206;3.326;2023-01-10T15:48:56;8.10;99.90
44990;DHT22;30723;51.206;3.326;2023-01-10T15:51:37;8.10;99.90
44990;DHT22;30723;51.206;3.326;2023-01-10T15:59:30;8.20;99.90
44990;DHT22;30723;51.206;3.326;2023-01-10T16:02:17;8.20;99.90
44990;DHT22;30723;51.206;3.326;2023-01-10T16:04:47;8.20;99.90
44990;DHT22;30723;51.206;3.326;2023-01-10T16:07:35;8.20;99.90
44990;DHT22;30723;51.206;3.326;2023-01-10T16:10:21;8.30;99.90
44990;DHT22;30723;51.206;3.326;2023-01-10T16:12:47;8.30;99.90
44990;DHT22;30723;51.206;3.326;2023-01-10T16:15:35;8.30;99.90
44990;DHT22;30723;51.206;3.326;2023-01-10T16:18:03;8.30;99.90
44990;DHT22;30723;51.206;3.326;2023-01-10T16:20:42;8.30;99.90
44990;DHT22;30723;51.206;3.326;2023-01-10T16:23:19;8.40;99.90
44990;DHT22;30723;51.206;3.326;2023-01-10T16:25:51;8.40;99.90
44990;DHT22;30723;51.206;3.326;2023-01-10T16:28:18;8.50;99.90
44990;DHT22;30723;51.206;3.326;2023-01-10T16:30:44;8.50;99.90
44990;DHT22;30723;51.206;3.326;2023-01-10T16:33:18;8.50;99.90
44990;DHT22;30723;51.206;3.326;2023-01-10T16:35:49;8.60;99.90
44990;DHT22;30723;51.206;3.326;2023-01-10T16:38:16;8.70;99.90
44990;DHT22;30723;51.206;3.326;2023-01-10T16:40:47;8.70;99.90
44990;DHT22;30723;51.206;3.326;2023-01-10T16:43:14;8.70;99.90
44990;DHT22;30723;51.206;3.326;2023-01-10T16:45:47;8.80;99.90
44990;DHT22;30723;51.206;3.326;2023-01-10T16:48:13;8.80;99.90
44990;DHT22;30723;51.206;3.326;2023-01-10T16:50:40;8.90;99.90
44990;DHT22;30723;51.206;3.326;2023-01-10T16:53:13;8.90;99.90
44990;DHT22;30723;51.206;3.326;2023-01-10T16:55:46;8.90;99.90
44990;DHT22;30723;51.206;3.326;2023-01-10T16:58:15;9.00;99.90
44990;DHT22;30723;51.206;3.326;2023-01-10T17:00:43;9.00;99.90
44990;DHT22;30723;51.206;3.326;2023-01-10T17:03:16;9.10;99.90
44990;DHT22;30723;51.206;3.326;2023-01-10T17:05:42;9.00;99.90
44990;DHT22;30723;51.206;3.326;2023-01-10T17:08:15;9.10;99.90
44990;DHT22;30723;51.206;3.326;2023-01-10T17:10:42;9.10;99.90
44990;DHT22;30723;51.206;3.326;2023-01-10T17:13:08;9.10;99.90
44990;DHT22;30723;51.206;3.326;2023-01-10T17:15:35;9.10;99.90
44990;DHT22;30723;51.206;3.326;2023-01-10T17:18:03;9.10;99.90
44990;DHT22;30723;51.206;3.326;2023-01-10T17:20:29;9.10;99.90
44990;DHT22;30723;51.206;3.326;2023-01-10T17:22:56;9.20;99.90
44990;DHT22;30723;51.206;3.326;2023-01-10T17:25:22;9.20;99.90
44990;DHT22;30723;51.206;3.326;2023-01-10T17:27:48;9.30;99.90
44990;DHT22;30723;51.206;3.326;2023-01-10T17:30:15;9.30;99.90
44990;DHT22;30723;51.206;3.326;2023-01-10T17:32:41;9.40;99.90
44990;DHT22;30723;51.206;3.326;2023-01-10T17:35:07;9.40;99.90
44990;DHT22;30723;51.206;3.326;2023-01-10T17:37:34;9.40;99.90